createdAt,value
2022-11-16T00:01:15.620Z,5.58
2022-11-16T00:04:00.927Z,5.61
2022-11-16T00:06:45.878Z,5.63
2022-11-16T00:09:29.764Z,5.63
2022-11-16T00:12:12.721Z,5.61
2022-11-16T00:14:55.777Z,5.61
2022-11-16T00:17:39.165Z,5.61
2022-11-16T00:20:22.039Z,5.63
2022-11-16T00:23:06.524Z,5.69
2022-11-16T00:25:49.702Z,5.71
2022-11-16T00:28:33.088Z,5.70
2022-11-16T00:31:16.725Z,5.67
2022-11-16T00:33:59.644Z,5.69
2022-11-16T00:36:43.595Z,5.71
2022-11-16T00:39:27.878Z,5.74
2022-11-16T00:42:10.815Z,5.80
2022-11-16T00:44:53.681Z,5.83
2022-11-16T00:47:36.767Z,5.85
2022-11-16T00:50:19.793Z,5.88
2022-11-16T00:53:03.110Z,5.91
2022-11-16T00:55:49.052Z,5.93
2022-11-16T00:58:34.625Z,6.01
2022-11-16T01:01:22.013Z,6.08
2022-11-16T01:04:06.887Z,6.15
2022-11-16T01:06:49.851Z,6.21
2022-11-16T01:09:32.739Z,6.27
2022-11-16T01:12:17.299Z,6.32
2022-11-16T01:15:00.202Z,6.37
2022-11-16T01:17:43.597Z,6.41
2022-11-16T01:20:28.727Z,6.45
2022-11-16T01:23:12.490Z,6.49
2022-11-16T01:25:57.775Z,6.52
2022-11-16T01:28:43.243Z,6.57
2022-11-16T01:31:27.104Z,6.60
2022-11-16T01:34:10.518Z,6.65
2022-11-16T01:36:53.691Z,6.68
2022-11-16T01:39:37.256Z,6.74
2022-11-16T01:42:22.080Z,6.79
2022-11-16T01:45:20.496Z,6.83
2022-11-16T01:48:07.048Z,6.87
2022-11-16T01:50:51.215Z,6.91
2022-11-16T01:53:34.600Z,6.95
2022-11-16T01:56:18.300Z,6.99
2022-11-16T01:59:15.770Z,7.02
2022-11-16T02:02:01.724Z,7.05
2022-11-16T02:04:46.980Z,7.06
2022-11-16T02:08:14.079Z,7.06
2022-11-16T02:11:23.291Z,7.03
2022-11-16T02:14:22.555Z,6.95
2022-11-16T02:17:20.691Z,6.88
2022-11-16T02:20:43.434Z,6.71
2022-11-16T02:23:56.491Z,6.52
2022-11-16T02:27:14.380Z,6.37
2022-11-16T02:29:58.959Z,6.23
2022-11-16T02:32:49.287Z,6.17
2022-11-16T02:35:37.638Z,6.11
2022-11-16T02:38:27.278Z,6.01
2022-11-16T02:41:13.077Z,5.91
2022-11-16T02:44:01.804Z,5.76
2022-11-16T02:46:50.059Z,5.63
2022-11-16T02:49:37.453Z,5.58
2022-11-16T02:52:22.813Z,5.54
2022-11-16T02:55:06.396Z,5.51
2022-11-16T02:57:56.783Z,5.43
2022-11-16T03:00:48.123Z,5.32
2022-11-16T03:03:41.745Z,5.16
2022-11-16T03:06:27.613Z,5.08
2022-11-16T03:09:16.879Z,5.03
2022-11-16T03:12:03.035Z,5.02
2022-11-16T03:14:55.376Z,4.96
2022-11-16T03:17:41.507Z,4.94
2022-11-16T03:20:29.070Z,4.96
2022-11-16T03:23:13.785Z,5.05
2022-11-16T03:26:01.005Z,5.10
2022-11-16T03:28:52.254Z,5.16
2022-11-16T03:31:44.975Z,5.19
2022-11-16T03:34:36.144Z,4.98
2022-11-16T03:37:23.185Z,4.80
2022-11-16T03:40:08.622Z,4.69
2022-11-16T03:42:51.873Z,4.63
2022-11-16T03:45:37.188Z,4.61
2022-11-16T03:48:21.184Z,4.64
2022-11-16T03:51:05.729Z,4.61
2022-11-16T03:53:50.024Z,4.52
2022-11-16T03:56:33.795Z,4.46
2022-11-16T03:59:16.714Z,4.40
2022-11-16T04:02:01.484Z,4.34
2022-11-16T04:05:01.750Z,4.29
2022-11-16T04:08:07.942Z,4.24
2022-11-16T04:11:08.993Z,4.16
2022-11-16T04:14:10.646Z,4.12
2022-11-16T04:17:13.924Z,4.09
2022-11-16T04:20:14.410Z,4.09
2022-11-16T04:23:21.340Z,4.08
2022-11-16T04:26:08.433Z,4.07
2022-11-16T04:28:51.141Z,4.08
2022-11-16T04:31:51.327Z,4.09
2022-11-16T04:34:51.687Z,4.10
2022-11-16T04:37:49.534Z,4.18
2022-11-16T04:40:37.218Z,4.21
2022-11-16T04:43:22.140Z,4.21
2022-11-16T04:46:22.269Z,4.28
2022-11-16T04:49:05.097Z,4.36
2022-11-16T04:51:48.272Z,4.41
2022-11-16T04:54:31.143Z,4.43
2022-11-16T04:57:14.759Z,4.41
2022-11-16T04:59:59.643Z,4.36
2022-11-16T05:02:42.902Z,4.33
2022-11-16T05:05:26.195Z,4.30
2022-11-16T05:08:09.454Z,4.24
2022-11-16T05:10:53.779Z,4.20
2022-11-16T05:13:36.740Z,4.18
2022-11-16T05:16:21.164Z,4.14
2022-11-16T05:19:22.126Z,4.11
2022-11-16T05:22:05.116Z,4.05
2022-11-16T05:24:48.092Z,3.99
2022-11-16T05:27:31.712Z,3.98
2022-11-16T05:30:15.374Z,3.99
2022-11-16T05:33:00.261Z,4.00
2022-11-16T05:35:46.215Z,3.98
2022-11-16T05:38:30.866Z,3.94
2022-11-16T05:41:15.924Z,3.93
2022-11-16T05:43:59.400Z,3.91
2022-11-16T05:46:42.796Z,3.95
2022-11-16T05:49:27.468Z,3.97
2022-11-16T05:52:10.980Z,4.03
2022-11-16T05:54:55.228Z,4.05
2022-11-16T05:57:38.470Z,4.06
2022-11-16T06:00:21.898Z,4.05
2022-11-16T06:03:08.194Z,4.11
2022-11-16T06:05:56.058Z,4.11
2022-11-16T06:08:41.379Z,4.15
2022-11-16T06:11:32.736Z,4.20
2022-11-16T06:14:19.007Z,4.22
2022-11-16T06:17:02.047Z,4.23
2022-11-16T06:19:45.063Z,4.21
2022-11-16T06:22:30.200Z,4.24
2022-11-16T06:25:13.185Z,4.23
2022-11-16T06:28:00.475Z,4.25
2022-11-16T06:30:47.164Z,4.31
2022-11-16T06:33:33.646Z,4.34
2022-11-16T06:36:20.009Z,4.38
2022-11-16T06:39:04.975Z,4.40
2022-11-16T06:41:51.854Z,4.34
2022-11-16T06:44:36.810Z,4.30
2022-11-16T06:47:21.808Z,4.28
2022-11-16T06:50:06.459Z,4.32
2022-11-16T06:52:51.021Z,4.32
2022-11-16T06:55:36.522Z,4.32
2022-11-16T06:58:19.953Z,4.30
2022-11-16T07:01:07.513Z,4.26
2022-11-16T07:03:52.040Z,4.19
2022-11-16T07:06:34.972Z,4.16
2022-11-16T07:09:18.266Z,4.10
2022-11-16T07:12:02.484Z,4.08
2022-11-16T07:14:51.089Z,4.10
2022-11-16T07:17:35.201Z,4.15
2022-11-16T07:20:19.636Z,4.18
2022-11-16T07:23:04.041Z,4.19
2022-11-16T07:25:47.861Z,4.22
2022-11-16T07:28:44.996Z,4.25
2022-11-16T07:31:32.766Z,4.30
2022-11-16T07:34:34.119Z,4.36
2022-11-16T07:37:26.770Z,4.40
2022-11-16T07:40:10.932Z,4.43
2022-11-16T07:42:58.163Z,4.46
2022-11-16T07:45:49.060Z,4.52
2022-11-16T07:48:33.719Z,4.58
2022-11-16T07:51:55.108Z,4.66
2022-11-16T07:54:58.343Z,4.69
2022-11-16T07:57:43.567Z,4.71
2022-11-16T08:00:26.568Z,4.74
2022-11-16T08:03:24.478Z,4.76
2022-11-16T08:06:13.474Z,4.81
2022-11-16T08:08:58.953Z,4.85
2022-11-16T08:11:42.618Z,4.84
2022-11-16T08:14:25.822Z,4.88
2022-11-16T08:17:11.904Z,4.90
2022-11-16T08:19:56.850Z,4.92
2022-11-16T08:22:40.178Z,4.95
2022-11-16T08:25:24.711Z,4.99
2022-11-16T08:28:07.673Z,5.04
2022-11-16T08:30:53.997Z,5.09
2022-11-16T08:33:37.982Z,5.13
2022-11-16T08:36:22.560Z,5.16
2022-11-16T08:39:05.629Z,5.21
2022-11-16T08:41:49.289Z,5.22
2022-11-16T08:44:32.179Z,5.24
2022-11-16T08:47:18.833Z,5.26
2022-11-16T08:50:10.729Z,5.28
2022-11-16T08:52:57.365Z,5.29
2022-11-16T08:55:40.322Z,5.29
2022-11-16T08:58:23.292Z,5.30
2022-11-16T09:01:11.054Z,5.35
2022-11-16T09:03:54.555Z,5.39
2022-11-16T09:06:37.715Z,5.45
2022-11-16T09:09:22.017Z,5.49
2022-11-16T09:12:05.414Z,5.52
2022-11-16T09:14:48.301Z,5.57
2022-11-16T09:17:31.276Z,5.60
2022-11-16T09:20:14.363Z,5.64
2022-11-16T09:22:57.225Z,5.67
2022-11-16T09:25:42.108Z,5.70
2022-11-16T09:28:24.941Z,5.74
2022-11-16T09:31:09.160Z,5.77
2022-11-16T09:33:52.159Z,5.81
2022-11-16T09:36:35.021Z,5.83
2022-11-16T09:39:33.516Z,5.87
2022-11-16T09:42:34.210Z,5.88
2022-11-16T09:45:23.157Z,5.90
2022-11-16T09:48:12.106Z,5.92
2022-11-16T09:50:58.349Z,5.96
2022-11-16T09:53:47.248Z,6.00
2022-11-16T09:56:34.308Z,6.02
2022-11-16T09:59:24.726Z,6.05
2022-11-16T10:02:28.834Z,6.08
2022-11-16T10:05:17.687Z,6.09
2022-11-16T10:08:10.777Z,6.12
2022-11-16T10:11:02.974Z,6.15
2022-11-16T10:14:03.711Z,6.17
2022-11-16T10:16:58.169Z,6.19
2022-11-16T10:19:50.085Z,6.21
2022-11-16T10:22:47.035Z,6.21
2022-11-16T10:25:38.524Z,6.22
2022-11-16T10:28:38.806Z,6.22
2022-11-16T10:31:28.571Z,6.24
2022-11-16T10:34:20.646Z,6.25
2022-11-16T10:37:08.435Z,6.26
2022-11-16T10:39:54.206Z,6.26
2022-11-16T10:42:39.538Z,6.27
2022-11-16T10:45:26.554Z,6.27
2022-11-16T10:48:20.712Z,6.29
2022-11-16T10:51:06.021Z,6.23
2022-11-16T10:53:49.568Z,6.17
2022-11-16T10:56:37.459Z,6.09
2022-11-16T10:59:20.638Z,6.04
2022-11-16T11:02:27.576Z,5.98
2022-11-16T11:05:17.626Z,5.94
2022-11-16T11:08:07.833Z,5.88
2022-11-16T11:11:01.889Z,5.87
2022-11-16T11:13:44.886Z,5.85
2022-11-16T11:16:27.878Z,5.83
2022-11-16T11:19:25.285Z,5.79
2022-11-16T11:22:15.311Z,5.78
2022-11-16T11:25:00.091Z,5.78
2022-11-16T11:27:43.093Z,5.81
2022-11-16T11:30:26.197Z,5.80
2022-11-16T11:33:12.622Z,5.82
2022-11-16T11:36:01.680Z,5.83
2022-11-16T11:38:57.848Z,5.86
2022-11-16T11:41:45.893Z,5.89
2022-11-16T11:44:37.246Z,5.88
2022-11-16T11:50:43.472Z,5.84
2022-11-16T11:53:48.497Z,5.80
2022-11-16T11:56:34.222Z,5.70
2022-11-16T11:59:22.474Z,5.72
2022-11-16T12:02:23.548Z,5.73
2022-11-16T12:05:35.177Z,5.78
2022-11-16T12:08:32.399Z,5.78
2022-11-16T12:11:25.589Z,5.78
2022-11-16T12:14:24.896Z,5.79
2022-11-16T12:17:17.890Z,5.83
2022-11-16T12:20:19.236Z,5.85
2022-11-16T12:23:24.154Z,5.89
2022-11-16T12:26:15.771Z,5.88
2022-11-16T12:29:13.844Z,5.88
2022-11-16T12:32:12.156Z,5.89
2022-11-16T12:35:07.496Z,5.92
2022-11-16T12:38:01.534Z,5.95
2022-11-16T12:40:59.326Z,5.96
2022-11-16T12:43:51.115Z,5.97
2022-11-16T12:46:46.258Z,5.98
2022-11-16T12:50:02.790Z,5.97
2022-11-16T12:52:59.807Z,5.97
2022-11-16T12:55:48.674Z,5.99
2022-11-16T12:58:48.504Z,5.99
2022-11-16T13:01:37.750Z,6.00
2022-11-16T13:04:25.721Z,6.03
2022-11-16T13:07:14.642Z,6.03
2022-11-16T13:10:06.398Z,6.04
2022-11-16T13:13:09.006Z,6.02
2022-11-16T13:15:57.525Z,6.04
2022-11-16T13:18:44.133Z,6.07
2022-11-16T13:21:37.273Z,6.07
2022-11-16T13:24:44.010Z,6.08
2022-11-16T13:27:37.203Z,6.08
2022-11-16T13:30:22.416Z,6.12
2022-11-16T13:33:23.849Z,6.11
2022-11-16T13:36:44.453Z,6.08
2022-11-16T13:43:20.169Z,6.08
2022-11-16T13:46:03.133Z,6.10
2022-11-16T13:48:47.426Z,6.10
2022-11-16T13:51:30.349Z,6.11
2022-11-16T13:57:25.246Z,6.11
2022-11-16T14:00:21.071Z,6.11
2022-11-16T14:03:26.590Z,6.13
2022-11-16T14:06:41.750Z,6.15
2022-11-16T14:09:49.310Z,6.13
2022-11-16T14:12:57.143Z,6.11
2022-11-16T14:15:41.606Z,6.10
2022-11-16T14:18:37.312Z,6.07
2022-11-16T14:21:37.852Z,6.07
2022-11-16T14:24:32.973Z,6.08
2022-11-16T14:27:29.232Z,6.07
2022-11-16T14:30:20.645Z,6.06
2022-11-16T14:33:05.266Z,6.05
2022-11-16T14:35:52.240Z,6.03
2022-11-16T14:38:37.840Z,6.05
2022-11-16T14:41:24.204Z,6.05
2022-11-16T14:44:07.167Z,6.06
2022-11-16T14:46:50.445Z,6.08
2022-11-16T14:49:37.386Z,6.09
2022-11-16T14:52:30.093Z,6.10
2022-11-16T14:55:21.006Z,6.12
2022-11-16T14:58:18.058Z,6.14
2022-11-16T15:01:03.913Z,6.14
2022-11-16T15:03:54.397Z,6.15
2022-11-16T15:06:44.038Z,6.14
2022-11-16T15:09:30.062Z,6.13
2022-11-16T15:12:34.607Z,6.14
2022-11-16T15:15:20.697Z,6.15
2022-11-16T15:18:08.930Z,6.12
2022-11-16T15:20:53.570Z,6.08
2022-11-16T15:24:02.165Z,6.08
2022-11-16T15:26:50.680Z,6.07
2022-11-16T15:29:33.874Z,6.06
2022-11-16T15:32:18.420Z,6.07
2022-11-16T15:35:05.349Z,6.06
2022-11-16T15:37:49.277Z,6.07
2022-11-16T15:40:34.296Z,6.08
2022-11-16T15:43:19.241Z,6.04
2022-11-16T15:46:02.603Z,6.04
2022-11-16T15:48:46.709Z,6.03
2022-11-16T15:51:32.167Z,6.00
2022-11-16T15:54:16.654Z,5.99
2022-11-16T15:57:12.471Z,5.99
2022-11-16T15:59:57.732Z,5.95
2022-11-16T16:02:45.389Z,5.93
2022-11-16T16:05:36.711Z,5.93
2022-11-16T16:08:31.800Z,5.92
2022-11-16T16:11:28.464Z,5.91
2022-11-16T16:14:24.404Z,5.93
2022-11-16T16:17:07.694Z,5.94
2022-11-16T16:19:56.363Z,5.93
2022-11-16T16:22:39.558Z,5.94
2022-11-16T16:25:30.892Z,5.95
2022-11-16T16:28:14.032Z,5.96
2022-11-16T16:30:58.551Z,5.98
2022-11-16T16:33:42.514Z,5.99
2022-11-16T16:36:25.721Z,6.01
2022-11-16T16:39:08.815Z,5.99
2022-11-16T16:41:51.782Z,5.99
2022-11-16T16:44:34.946Z,5.97
2022-11-16T16:47:20.658Z,5.96
2022-11-16T16:50:04.248Z,5.96
2022-11-16T16:52:47.190Z,5.95
2022-11-16T16:55:36.817Z,5.94
2022-11-16T16:58:20.517Z,5.92
2022-11-16T17:01:05.756Z,5.92
2022-11-16T17:03:50.080Z,5.95
2022-11-16T17:06:33.618Z,5.91
2022-11-16T17:09:16.674Z,5.87
2022-11-16T17:11:59.757Z,5.86
2022-11-16T17:14:42.702Z,5.85
2022-11-16T17:17:25.820Z,5.85
2022-11-16T17:20:11.998Z,5.80
2022-11-16T17:22:55.093Z,5.77
2022-11-16T17:25:38.264Z,5.77
2022-11-16T17:28:21.417Z,5.74
2022-11-16T17:31:05.762Z,5.74
2022-11-16T17:33:48.802Z,5.72
2022-11-16T17:36:33.327Z,5.69
2022-11-16T17:39:16.759Z,5.68
2022-11-16T17:41:59.878Z,5.70
2022-11-16T17:44:42.947Z,5.69
2022-11-16T17:47:25.932Z,5.65
2022-11-16T17:50:10.254Z,5.65
2022-11-16T17:52:54.528Z,5.67
2022-11-16T17:55:38.933Z,5.68
2022-11-16T17:58:22.517Z,5.67
2022-11-16T18:01:05.908Z,5.63
2022-11-16T18:03:49.439Z,5.61
2022-11-16T18:06:33.213Z,5.62
2022-11-16T18:09:18.931Z,5.58
2022-11-16T18:16:03.580Z,5.56
2022-11-16T18:18:47.929Z,5.52
2022-11-16T18:21:31.605Z,5.50
2022-11-16T18:24:14.524Z,5.49
2022-11-16T18:26:58.788Z,5.47
2022-11-16T18:29:41.667Z,5.46
2022-11-16T18:32:24.564Z,5.46
2022-11-16T18:35:10.104Z,5.48
2022-11-16T18:37:53.045Z,5.48
2022-11-16T18:40:35.922Z,5.50
2022-11-16T18:43:20.172Z,5.52
2022-11-16T18:46:03.119Z,5.55
2022-11-16T18:48:46.812Z,5.58
2022-11-16T18:51:30.521Z,5.59
2022-11-16T18:54:13.510Z,5.62
2022-11-16T18:56:56.787Z,5.66
2022-11-16T18:59:41.020Z,5.68
2022-11-16T19:02:23.935Z,5.69
2022-11-16T19:05:08.580Z,5.69
2022-11-16T19:07:51.236Z,5.70
2022-11-16T19:10:37.560Z,5.69
2022-11-16T19:13:20.493Z,5.68
2022-11-16T19:16:04.973Z,5.67
2022-11-16T19:18:47.887Z,5.68
2022-11-16T19:21:30.999Z,5.69
2022-11-16T19:24:13.923Z,5.71
2022-11-16T19:26:56.762Z,5.70
2022-11-16T19:29:39.665Z,5.72
2022-11-16T19:32:23.793Z,5.72
2022-11-16T19:35:10.779Z,5.72
2022-11-16T19:37:53.682Z,5.73
2022-11-16T19:40:39.299Z,5.75
2022-11-16T19:43:22.182Z,5.75
2022-11-16T19:46:06.520Z,5.75
2022-11-16T19:48:51.050Z,5.75
2022-11-16T19:51:34.693Z,5.74
2022-11-16T19:54:17.605Z,5.72
2022-11-16T19:57:00.438Z,5.72
2022-11-16T19:59:43.525Z,5.71
2022-11-16T20:02:26.342Z,5.71
2022-11-16T20:05:10.826Z,5.71
2022-11-16T20:07:53.708Z,5.70
2022-11-16T20:10:36.585Z,5.66
2022-11-16T20:13:19.448Z,5.62
2022-11-16T20:16:02.488Z,5.60
2022-11-16T20:18:46.294Z,5.57
2022-11-16T20:21:33.165Z,5.57
2022-11-16T20:24:17.225Z,5.59
2022-11-16T20:27:00.708Z,5.58
2022-11-16T20:29:43.596Z,5.57
2022-11-16T20:32:26.436Z,5.57
2022-11-16T20:35:11.806Z,5.58
2022-11-16T20:37:58.067Z,5.59
2022-11-16T20:40:40.991Z,5.58
2022-11-16T20:43:23.903Z,5.58
2022-11-16T20:46:07.307Z,5.57
2022-11-16T20:48:50.713Z,5.55
2022-11-16T20:51:33.624Z,5.48
2022-11-16T20:54:17.858Z,5.44
2022-11-16T20:57:00.758Z,5.39
2022-11-16T20:59:43.548Z,5.37
2022-11-16T21:02:26.433Z,5.33
2022-11-16T21:05:10.091Z,5.33
2022-11-16T21:07:52.971Z,5.33
2022-11-16T21:10:38.114Z,5.34
2022-11-16T21:13:40.269Z,5.36
2022-11-16T21:16:23.252Z,5.36
2022-11-16T21:19:06.813Z,5.37
2022-11-16T21:21:49.679Z,5.40
2022-11-16T21:24:32.565Z,5.42
2022-11-16T21:27:16.816Z,5.45
2022-11-16T21:29:59.769Z,5.45
2022-11-16T21:32:42.698Z,5.49
2022-11-16T21:35:27.005Z,5.52
2022-11-16T21:38:09.866Z,5.53
2022-11-16T21:40:52.776Z,5.55
2022-11-16T21:43:37.629Z,5.57
2022-11-16T21:46:22.673Z,5.57
2022-11-16T21:49:07.592Z,5.58
2022-11-16T21:51:50.408Z,5.58
2022-11-16T21:54:53.497Z,5.57
2022-11-16T21:57:36.386Z,5.57
2022-11-16T22:00:21.258Z,5.56
2022-11-16T22:03:04.185Z,5.57
2022-11-16T22:06:10.327Z,5.60
2022-11-16T22:08:54.346Z,5.59
2022-11-16T22:11:37.207Z,5.59
2022-11-16T22:14:20.113Z,5.56
2022-11-16T22:17:04.371Z,5.55
2022-11-16T22:19:47.216Z,5.57
2022-11-16T22:22:30.151Z,5.58
2022-11-16T22:25:13.873Z,5.60
2022-11-16T22:28:19.651Z,5.63
2022-11-16T22:31:01.410Z,5.65
2022-11-16T22:33:45.654Z,5.66
2022-11-16T22:36:28.528Z,5.64
2022-11-16T22:39:11.416Z,5.64
2022-11-16T22:41:54.257Z,5.65
2022-11-16T22:44:37.179Z,5.65
2022-11-16T22:47:20.034Z,5.65
2022-11-16T22:50:04.424Z,5.62
2022-11-16T22:52:47.319Z,5.63
2022-11-16T22:55:30.234Z,5.60
2022-11-16T22:58:13.086Z,5.56
2022-11-16T23:00:55.980Z,5.52
2022-11-16T23:03:39.398Z,5.52
2022-11-16T23:06:24.020Z,5.52
2022-11-16T23:09:06.938Z,5.54
2022-11-16T23:12:07.238Z,5.55
2022-11-16T23:15:07.596Z,5.57
2022-11-16T23:17:50.483Z,5.59
2022-11-16T23:20:52.852Z,5.60
2022-11-16T23:23:54.670Z,5.61
2022-11-16T23:26:54.784Z,5.59
2022-11-16T23:29:37.759Z,5.57
2022-11-16T23:32:20.636Z,5.54
2022-11-16T23:35:03.442Z,5.52
2022-11-16T23:37:53.875Z,5.46
2022-11-16T23:40:39.550Z,5.40
2022-11-16T23:43:39.835Z,5.35
2022-11-16T23:46:22.627Z,5.31
2022-11-16T23:49:05.539Z,5.27
2022-11-16T23:51:48.400Z,5.25
2022-11-16T23:54:31.398Z,5.24
2022-11-16T23:57:15.638Z,5.20
2022-11-16T23:59:58.582Z,5.14
